LIRP/PSA METAR and TAF weather

Enter ICAO airport designator
Station Type Date Time Source
LIRP METAR 2022/01/27 23:15 UTC NOAA

LIRP 272315Z 27004KT 9999 FEW030 BKN040 09/07 Q1027 NOSIG


Station Type Date Time Source
LIRP Decoded METAR 2022/01/27 23:15 UTC NOAA

Pisa / S. Giusto, Italy (LIRP) 43-41N 010-23E 6M
Jan 27, 2022 - 06:15 PM EST / 2022.01.27 2315 UTC
Wind: from the W (270 degrees) at 5 MPH (4 KT):0
Visibility: greater than 7 mile(s):0
Sky conditions: mostly cloudy
Temperature: 48 F (9 C)
Dew Point: 44 F (7 C)
Relative Humidity: 87%
Pressure (altimeter): 30.33 in. Hg (1027 hPa)
ob: LIRP 272315Z 27004KT 9999 FEW030 BKN040 09/07 Q1027 NOSIG
cycle: 23

Station Type Date Time Source
LIRP TAF 2022/01/27 18:22 UTC NOAA

TAF LIRP 271700Z 2718/2818 VRB03KT 9999 SCT025 BKN035
TEMPO 2718/2706 5000 BR PROB40
TEMPO 2718/2806 2000 MIFG
TEMPO 2721/2802 12007KT

Example: see airport list